Time;durP1;ratioP1;P1;durP2;ratioP2;P2;SDS_P1;SDS_P2;PMS_P1;PMS_P2;Temp;Humidity;BMP_temperature;BMP_pressure;BME280_temperature;BME280_humidity;BME280_pressure;Samples;Min_cycle;Max_cycle;Signal;HPM_P1;HPM_P2
2023/12/15 00:02:49;;;;;;;12.85;3.72;;;;;;;;;;4987389;28;20061;-74
2023/12/15 00:05:16;;;;;;;13.68;3.38;;;;;;;;;;4985529;28;20033;-75
2023/12/15 00:07:42;;;;;;;12.13;4.32;;;;;;;;;;4988698;28;20072;-75
2023/12/15 00:10:08;;;;;;;14.85;4.72;;;;;;;;;;4985910;28;20165;-76
2023/12/15 00:12:34;;;;;;;14.73;5.15;;;;;;;;;;4986119;28;20030;-75
2023/12/15 00:15:01;;;;;;;17.15;5.72;;;;;;;;;;4984604;28;20022;-75
2023/12/15 00:17:27;;;;;;;14.05;5.57;;;;;;;;;;4983113;28;20381;-75
2023/12/15 00:19:53;;;;;;;14.75;5.63;;;;;;;;;;4983024;28;20037;-76
2023/12/15 00:22:19;;;;;;;12.35;4.50;;;;;;;;;;4981365;28;20157;-75
2023/12/15 00:24:45;;;;;;;12.50;4.30;;;;;;;;;;4984281;28;20065;-75
2023/12/15 00:27:11;;;;;;;;;;;;;;;;;;4981769;28;20034;-75
2023/12/15 00:29:38;;;;;;;15.85;5.32;;;;;;;;;;4982601;28;20640;-76
2023/12/15 00:32:04;;;;;;;;;;;;;;;;;;4985870;28;20030;-75
2023/12/15 00:34:30;;;;;;;12.60;4.70;;;;;;;;;;4985246;28;19913;-75
2023/12/15 00:36:56;;;;;;;12.85;4.47;;;;;;;;;;4985591;28;20068;-75
2023/12/15 00:39:22;;;;;;;14.82;4.90;;;;;;;;;;4985398;28;20046;-75
2023/12/15 00:41:48;;;;;;;13.05;4.97;;;;;;;;;;4981291;28;20030;-75
2023/12/15 00:44:14;;;;;;;13.60;4.22;;;;;;;;;;4980539;28;20712;-76
2023/12/15 00:46:41;;;;;;;12.50;4.82;;;;;;;;;;4983743;28;20027;-75
2023/12/15 00:49:07;;;;;;;11.65;3.85;;;;;;;;;;4978231;28;20117;-75
2023/12/15 00:51:33;;;;;;;14.15;4.97;;;;;;;;;;4983192;28;20025;-76
2023/12/15 00:53:59;;;;;;;12.45;4.55;;;;;;;;;;4984193;28;20372;-76
2023/12/15 00:56:25;;;;;;;12.05;3.95;;;;;;;;;;4977801;28;20062;-76
2023/12/15 00:58:51;;;;;;;9.70;3.45;;;;;;;;;;4977307;28;20042;-75
2023/12/15 01:01:17;;;;;;;11.88;4.28;;;;;;;;;;4983825;28;20061;-76
2023/12/15 01:03:43;;;;;;;12.55;4.18;;;;;;;;;;4982535;28;20224;-76
2023/12/15 01:06:10;;;;;;;11.50;3.85;;;;;;;;;;4981249;28;20034;-75
2023/12/15 01:08:36;;;;;;;;;;;;;;;;;;4986054;28;20100;-76
2023/12/15 01:11:02;;;;;;;12.25;3.50;;;;;;;;;;4981436;28;19925;-76
2023/12/15 01:13:28;;;;;;;13.10;3.78;;;;;;;;;;4983006;28;20022;-76
2023/12/15 01:15:54;;;;;;;11.27;3.55;;;;;;;;;;4983711;28;20061;-76
2023/12/15 01:18:20;;;;;;;11.45;3.75;;;;;;;;;;4979190;28;20829;-76
2023/12/15 01:20:47;;;;;;;10.07;3.35;;;;;;;;;;4983456;28;20720;-76
2023/12/15 01:23:13;;;;;;;10.20;3.30;;;;;;;;;;4982287;28;20033;-76
2023/12/15 01:25:40;;;;;;;10.88;3.38;;;;;;;;;;4980127;28;20039;-76
2023/12/15 01:28:06;;;;;;;11.45;3.50;;;;;;;;;;4986192;28;20032;-76
2023/12/15 01:30:32;;;;;;;13.35;3.92;;;;;;;;;;4988963;28;20148;-76
2023/12/15 01:32:59;;;;;;;12.25;3.80;;;;;;;;;;4988000;28;20058;-76
2023/12/15 01:35:25;;;;;;;14.90;4.05;;;;;;;;;;4990612;28;21542;-76
2023/12/15 01:37:51;;;;;;;9.75;3.20;;;;;;;;;;4991095;28;20053;-76
2023/12/15 01:40:19;;;;;;;13.23;3.25;;;;;;;;;;4984055;28;20042;-75
2023/12/15 01:42:47;;;;;;;10.88;3.30;;;;;;;;;;4989908;28;20415;-76
2023/12/15 01:45:13;;;;;;;10.95;3.15;;;;;;;;;;4987274;28;20145;-76
2023/12/15 01:47:39;;;;;;;11.02;2.70;;;;;;;;;;4987870;28;20149;-75
2023/12/15 01:50:09;;;;;;;10.00;2.50;;;;;;;;;;4987315;28;20051;-76
2023/12/15 01:52:35;;;;;;;10.38;2.63;;;;;;;;;;4987644;28;20061;-76
2023/12/15 01:55:01;;;;;;;10.40;2.80;;;;;;;;;;4985146;28;20133;-76
2023/12/15 01:57:27;;;;;;;;;;;;;;;;;;4989615;28;20049;-76
2023/12/15 01:59:53;;;;;;;9.90;2.38;;;;;;;;;;4991388;28;19917;-76
2023/12/15 02:02:19;;;;;;;7.63;2.22;;;;;;;;;;4986301;28;20481;-77
2023/12/15 02:04:46;;;;;;;12.05;2.70;;;;;;;;;;4987919;28;20034;-76
2023/12/15 02:07:13;;;;;;;12.32;2.88;;;;;;;;;;4981308;28;20149;-76
2023/12/15 02:09:39;;;;;;;8.93;2.60;;;;;;;;;;4985366;28;20025;-76
2023/12/15 02:12:06;;;;;;;10.88;2.90;;;;;;;;;;4989058;28;20030;-76
2023/12/15 02:14:32;;;;;;;12.55;2.58;;;;;;;;;;4991097;28;20894;-76
2023/12/15 02:16:58;;;;;;;9.98;2.90;;;;;;;;;;4988770;28;20137;-76
2023/12/15 02:19:24;;;;;;;11.15;2.80;;;;;;;;;;4986298;28;20056;-76
2023/12/15 02:21:51;;;;;;;11.38;3.10;;;;;;;;;;4986383;28;20630;-76
2023/12/15 02:24:17;;;;;;;;;;;;;;;;;;4989371;28;20034;-76
2023/12/15 02:26:43;;;;;;;12.98;3.08;;;;;;;;;;4989222;28;19921;-76
2023/12/15 02:29:09;;;;;;;9.73;2.33;;;;;;;;;;4986908;28;20029;-76
2023/12/15 02:31:35;;;;;;;11.50;2.92;;;;;;;;;;4989993;28;20017;-75
2023/12/15 02:34:01;;;;;;;11.15;2.53;;;;;;;;;;4986999;28;20026;-76
2023/12/15 02:36:28;;;;;;;12.45;2.78;;;;;;;;;;4983001;28;20081;-76
2023/12/15 02:38:54;;;;;;;;;;;;;;;;;;4989110;28;20045;-76
2023/12/15 02:41:21;;;;;;;11.45;3.10;;;;;;;;;;4986156;28;19918;-76
2023/12/15 02:43:47;;;;;;;12.38;3.20;;;;;;;;;;4986185;28;20150;-75
2023/12/15 02:46:13;;;;;;;;;;;;;;;;;;4987586;28;20037;-75
2023/12/15 02:48:39;;;;;;;12.40;3.38;;;;;;;;;;4983954;28;19914;-75
2023/12/15 02:51:06;;;;;;;12.25;2.90;;;;;;;;;;4983458;28;20069;-74
2023/12/15 02:53:32;;;;;;;10.95;3.10;;;;;;;;;;4986641;28;20117;-75
2023/12/15 02:55:58;;;;;;;10.30;2.58;;;;;;;;;;4987911;28;20056;-75
2023/12/15 02:58:24;;;;;;;11.85;3.00;;;;;;;;;;4985971;28;20045;-76
2023/12/15 03:00:50;;;;;;;11.38;3.00;;;;;;;;;;4987404;28;21045;-74
2023/12/15 03:03:16;;;;;;;13.85;2.90;;;;;;;;;;4984793;28;20030;-75
2023/12/15 03:05:42;;;;;;;11.45;3.25;;;;;;;;;;4984448;28;20038;-78
2023/12/15 03:08:08;;;;;;;12.27;2.97;;;;;;;;;;4986167;28;20029;-75
2023/12/15 03:10:35;;;;;;;11.57;2.95;;;;;;;;;;4987222;28;20022;-75
2023/12/15 03:13:01;;;;;;;13.27;3.28;;;;;;;;;;4988588;28;20112;-74
2023/12/15 03:15:27;;;;;;;14.63;3.53;;;;;;;;;;4985819;28;20034;-75
2023/12/15 03:17:53;;;;;;;13.77;3.60;;;;;;;;;;4987369;28;20586;-74
2023/12/15 03:20:19;;;;;;;12.95;3.10;;;;;;;;;;4985884;28;20137;-75
2023/12/15 03:22:46;;;;;;;13.68;3.67;;;;;;;;;;4985754;28;20085;-74
2023/12/15 03:25:13;;;;;;;12.48;3.25;;;;;;;;;;4985709;28;20033;-75
2023/12/15 03:27:39;;;;;;;12.10;3.38;;;;;;;;;;4987839;28;20033;-77
2023/12/15 03:30:05;;;;;;;13.77;3.00;;;;;;;;;;4986439;28;20765;-76
2023/12/15 03:32:31;;;;;;;13.73;3.33;;;;;;;;;;4986323;28;20037;-75
2023/12/15 03:34:57;;;;;;;14.55;3.28;;;;;;;;;;4985007;28;20026;-74
2023/12/15 03:37:23;;;;;;;10.98;2.78;;;;;;;;;;4983742;28;20037;-75
2023/12/15 03:39:50;;;;;;;13.93;3.58;;;;;;;;;;4988542;28;20131;-75
2023/12/15 03:42:16;;;;;;;14.27;3.20;;;;;;;;;;4982583;28;20820;-75
2023/12/15 03:44:42;;;;;;;15.90;3.55;;;;;;;;;;4986429;28;20034;-75
2023/12/15 03:47:08;;;;;;;11.65;3.22;;;;;;;;;;4982851;28;20968;-74
2023/12/15 03:49:34;;;;;;;;;;;;;;;;;;4986113;28;20634;-75
2023/12/15 03:52:00;;;;;;;14.32;3.30;;;;;;;;;;4983875;28;19921;-75
2023/12/15 03:54:26;;;;;;;11.73;2.55;;;;;;;;;;4985578;28;20042;-75
2023/12/15 03:56:56;;;;;;;12.10;2.90;;;;;;;;;;4988475;28;20042;-74
2023/12/15 03:59:23;;;;;;;13.80;3.13;;;;;;;;;;4984250;28;20111;-74
2023/12/15 04:01:49;;;;;;;12.90;2.70;;;;;;;;;;4984349;28;20163;-76
2023/12/15 04:04:15;;;;;;;14.65;3.00;;;;;;;;;;4983806;28;20522;-75
2023/12/15 04:06:41;;;;;;;14.00;3.00;;;;;;;;;;4986876;28;20994;-75
2023/12/15 04:09:10;;;;;;;13.73;2.78;;;;;;;;;;4979403;28;20087;-75
2023/12/15 04:11:36;;;;;;;15.43;3.33;;;;;;;;;;4985478;28;20026;-75
2023/12/15 04:14:03;;;;;;;13.35;2.80;;;;;;;;;;4984287;28;20030;-75
2023/12/15 04:16:29;;;;;;;;;;;;;;;;;;4982911;28;20767;-74
2023/12/15 04:18:55;;;;;;;13.00;3.10;;;;;;;;;;4980273;28;19920;-74
2023/12/15 04:21:21;;;;;;;11.85;2.90;;;;;;;;;;4985075;28;20172;-77
2023/12/15 04:23:47;;;;;;;13.68;2.88;;;;;;;;;;4988348;28;20072;-74
2023/12/15 04:26:13;;;;;;;10.45;2.55;;;;;;;;;;4984341;28;20104;-75
2023/12/15 04:28:39;;;;;;;10.52;2.75;;;;;;;;;;4986097;28;20037;-75
2023/12/15 04:31:06;;;;;;;13.23;2.90;;;;;;;;;;4984453;28;20526;-74
2023/12/15 04:33:32;;;;;;;13.40;3.13;;;;;;;;;;4984910;28;20026;-75
2023/12/15 04:35:58;;;;;;;11.25;3.28;;;;;;;;;;4984973;28;20064;-74
2023/12/15 04:38:24;;;;;;;13.07;2.97;;;;;;;;;;4980766;28;20041;-75
2023/12/15 04:40:50;;;;;;;11.43;3.30;;;;;;;;;;4983064;28;20215;-75
2023/12/15 04:43:16;;;;;;;14.52;3.08;;;;;;;;;;4981901;28;20034;-75
2023/12/15 04:45:44;;;;;;;13.38;3.50;;;;;;;;;;4982924;28;20037;-75
2023/12/15 04:48:10;;;;;;;12.05;2.90;;;;;;;;;;4986038;28;20022;-74
2023/12/15 04:50:36;;;;;;;12.07;2.90;;;;;;;;;;4987722;28;20056;-75
2023/12/15 04:53:03;;;;;;;13.68;2.90;;;;;;;;;;4986281;28;20030;-76
2023/12/15 04:55:29;;;;;;;13.90;3.25;;;;;;;;;;4979006;28;20030;-75
2023/12/15 04:57:55;;;;;;;14.55;3.38;;;;;;;;;;4986062;28;20021;-75
2023/12/15 05:00:21;;;;;;;12.68;2.92;;;;;;;;;;4984276;28;20038;-76
2023/12/15 05:02:47;;;;;;;13.88;3.15;;;;;;;;;;4991629;28;20030;-76
2023/12/15 05:05:13;;;;;;;;;;;;;;;;;;4988484;28;20117;-77
2023/12/15 05:07:39;;;;;;;16.02;3.28;;;;;;;;;;5017970;28;20023;-76
2023/12/15 05:10:07;;;;;;;15.32;3.20;;;;;;;;;;4984880;28;20037;-75
2023/12/15 05:12:37;;;;;;;11.93;2.85;;;;;;;;;;4986548;28;20034;-75
2023/12/15 05:15:03;;;;;;;14.30;3.03;;;;;;;;;;4987856;28;20148;-75
2023/12/15 05:17:30;;;;;;;12.40;2.83;;;;;;;;;;4988025;28;20034;-75
2023/12/15 05:19:56;;;;;;;13.65;3.40;;;;;;;;;;4987127;28;20034;-75
2023/12/15 05:22:22;;;;;;;15.27;2.97;;;;;;;;;;4989669;28;20070;-76
2023/12/15 05:24:50;;;;;;;15.85;3.50;;;;;;;;;;4986983;28;20038;-74
2023/12/15 05:27:16;;;;;;;12.18;2.95;;;;;;;;;;4986690;28;20034;-76
2023/12/15 05:29:46;;;;;;;12.80;2.70;;;;;;;;;;4989059;28;20030;-75
2023/12/15 05:32:12;;;;;;;14.00;3.72;;;;;;;;;;4987270;28;20477;-74
2023/12/15 05:34:39;;;;;;;15.00;3.85;;;;;;;;;;4992519;28;20025;-75
2023/12/15 05:37:05;;;;;;;11.93;2.97;;;;;;;;;;4987167;28;20536;-75
2023/12/15 05:39:31;;;;;;;16.92;3.88;;;;;;;;;;4988719;28;20037;-75
2023/12/15 05:41:57;;;;;;;13.07;3.20;;;;;;;;;;4989276;28;20018;-75
2023/12/15 05:44:26;;;;;;;14.13;3.38;;;;;;;;;;4987509;28;20041;-76
2023/12/15 05:46:53;;;;;;;10.82;3.10;;;;;;;;;;4990749;28;20160;-76
2023/12/15 05:49:20;;;;;;;12.88;3.33;;;;;;;;;;4987272;28;20037;-75
2023/12/15 05:51:49;;;;;;;12.65;3.22;;;;;;;;;;4990432;28;20152;-76
2023/12/15 05:54:15;;;;;;;13.18;2.90;;;;;;;;;;4981502;28;20552;-74
2023/12/15 05:56:41;;;;;;;15.05;3.63;;;;;;;;;;4987887;28;20050;-76
2023/12/15 05:59:08;;;;;;;21.77;5.05;;;;;;;;;;4984634;28;20093;-76
2023/12/15 06:01:34;;;;;;;18.52;4.28;;;;;;;;;;4987850;28;20512;-76
2023/12/15 06:04:00;;;;;;;15.98;4.70;;;;;;;;;;4988884;28;20090;-75
2023/12/15 06:06:27;;;;;;;16.30;4.78;;;;;;;;;;4983312;28;20107;-76
2023/12/15 06:08:53;;;;;;;13.93;4.32;;;;;;;;;;4984658;28;20802;-76
2023/12/15 06:11:19;;;;;;;15.10;5.07;;;;;;;;;;4980155;28;20022;-76
2023/12/15 06:13:45;;;;;;;16.88;4.82;;;;;;;;;;4980423;28;20026;-76
2023/12/15 06:16:18;;;;;;;16.33;5.07;;;;;;;;;;4982139;28;20073;-76
2023/12/15 06:18:44;;;;;;;16.10;4.60;;;;;;;;;;4982654;28;20547;-76
2023/12/15 06:21:19;;;;;;;12.98;4.00;;;;;;;;;;4982341;28;20073;-75
2023/12/15 06:23:47;;;;;;;15.88;4.50;;;;;;;;;;4987123;28;20041;-76
2023/12/15 06:26:19;;;;;;;15.13;3.97;;;;;;;;;;4981839;28;20060;-75
2023/12/15 06:28:45;;;;;;;14.40;4.07;;;;;;;;;;4986345;28;20029;-75
2023/12/15 06:31:11;;;;;;;16.58;5.57;;;;;;;;;;4986318;28;20136;-75
2023/12/15 06:33:38;;;;;;;14.82;4.95;;;;;;;;;;4987447;28;20080;-76
2023/12/15 06:36:04;;;;;;;17.10;4.38;;;;;;;;;;4992229;28;20018;-76
2023/12/15 06:38:31;;;;;;;15.98;4.40;;;;;;;;;;4993929;28;20512;-76
2023/12/15 06:40:58;;;;;;;17.02;5.45;;;;;;;;;;4986671;28;20018;-76
2023/12/15 06:43:24;;;;;;;;;;;;;;;;;;4983047;28;20076;-76
2023/12/15 06:45:50;;;;;;;15.90;4.65;;;;;;;;;;4984415;28;20810;-75
2023/12/15 06:48:16;;;;;;;17.27;4.65;;;;;;;;;;4981350;28;20030;-77
2023/12/15 06:50:42;;;;;;;14.52;4.82;;;;;;;;;;4984993;28;20046;-75
2023/12/15 06:53:08;;;;;;;16.15;4.95;;;;;;;;;;4983238;28;20038;-76
2023/12/15 06:55:35;;;;;;;14.70;5.05;;;;;;;;;;4932201;28;1477250;-75
2023/12/15 06:58:01;;;;;;;16.27;5.32;;;;;;;;;;4984362;28;20030;-75
2023/12/15 07:00:27;;;;;;;16.55;4.82;;;;;;;;;;4982427;28;20029;-76
2023/12/15 07:02:54;;;;;;;17.25;4.72;;;;;;;;;;4982212;28;20461;-75
2023/12/15 07:05:20;;;;;;;;;;;;;;;;;;4981683;28;20926;-75
2023/12/15 07:07:46;;;;;;;14.52;4.68;;;;;;;;;;4986035;28;20784;-75
2023/12/15 07:10:12;;;;;;;13.88;4.65;;;;;;;;;;4984582;28;20026;-74
2023/12/15 07:12:38;;;;;;;21.40;6.28;;;;;;;;;;4987897;28;20025;-75
2023/12/15 07:15:04;;;;;;;;;;;;;;;;;;4985751;28;20038;-74
2023/12/15 07:17:31;;;;;;;14.63;4.72;;;;;;;;;;4981552;28;20311;-76
2023/12/15 07:19:57;;;;;;;16.10;5.13;;;;;;;;;;4984286;28;20068;-75
2023/12/15 07:22:23;;;;;;;16.50;5.97;;;;;;;;;;4983280;28;20050;-75
2023/12/15 07:24:49;;;;;;;14.93;5.15;;;;;;;;;;4985462;28;20073;-75
2023/12/15 07:27:15;;;;;;;13.10;5.13;;;;;;;;;;4981025;28;20038;-75
2023/12/15 07:29:42;;;;;;;16.33;6.97;;;;;;;;;;4985666;28;20034;-75
2023/12/15 07:32:08;;;;;;;;;;;;;;;;;;4979262;28;20132;-75
2023/12/15 07:34:34;;;;;;;14.18;7.35;;;;;;;;;;4983347;28;20138;-75
2023/12/15 07:37:00;;;;;;;19.48;6.80;;;;;;;;;;4986849;28;20571;-75
2023/12/15 07:39:26;;;;;;;17.00;5.38;;;;;;;;;;4980557;28;20126;-74
2023/12/15 07:41:52;;;;;;;19.55;5.10;;;;;;;;;;4985475;28;20153;-74
2023/12/15 07:44:18;;;;;;;13.60;5.30;;;;;;;;;;4978111;28;20509;-75
2023/12/15 07:46:44;;;;;;;15.77;3.90;;;;;;;;;;4979030;28;20018;-75
2023/12/15 07:49:11;;;;;;;13.70;4.07;;;;;;;;;;4981193;28;20273;-74
2023/12/15 07:51:37;;;;;;;;;;;;;;;;;;4983056;28;20100;-74
2023/12/15 07:54:03;;;;;;;15.55;4.22;;;;;;;;;;4984068;28;20036;-75
2023/12/15 07:56:30;;;;;;;14.00;3.88;;;;;;;;;;4981127;28;20053;-75
2023/12/15 07:58:56;;;;;;;10.30;3.20;;;;;;;;;;4979879;28;20296;-76
2023/12/15 08:01:23;;;;;;;10.80;3.20;;;;;;;;;;4981705;28;20034;-76
2023/12/15 08:03:50;;;;;;;18.15;4.47;;;;;;;;;;4983991;28;20068;-75
2023/12/15 08:06:16;;;;;;;14.65;4.90;;;;;;;;;;4977425;28;20108;-75
2023/12/15 08:08:43;;;;;;;14.40;4.40;;;;;;;;;;4980773;28;20038;-75
2023/12/15 08:11:13;;;;;;;16.92;5.03;;;;;;;;;;4979906;28;20835;-74
2023/12/15 08:13:39;;;;;;;14.98;4.68;;;;;;;;;;4982337;28;20036;-76
2023/12/15 08:16:06;;;;;;;14.43;4.70;;;;;;;;;;4980128;28;20208;-75
2023/12/15 08:18:32;;;;;;;17.65;5.50;;;;;;;;;;4979918;28;20041;-74
2023/12/15 08:21:00;;;;;;;15.75;4.93;;;;;;;;;;4982944;28;20502;-75
2023/12/15 08:23:28;;;;;;;21.05;6.85;;;;;;;;;;4980164;28;20052;-76
2023/12/15 08:25:54;;;;;;;19.52;6.03;;;;;;;;;;4982124;28;20038;-76
2023/12/15 08:28:20;;;;;;;22.45;6.05;;;;;;;;;;4978799;28;20213;-75
2023/12/15 08:30:48;;;;;;;18.65;6.45;;;;;;;;;;4979421;28;20033;-75
2023/12/15 08:33:14;;;;;;;19.35;6.22;;;;;;;;;;4965640;28;20033;-75
2023/12/15 08:35:40;;;;;;;;;;;;;;;;;;4981874;28;20030;-73
2023/12/15 08:38:06;;;;;;;16.17;5.60;;;;;;;;;;5000012;23;19929;-81
2023/12/15 08:40:34;;;;;;;14.80;5.45;;;;;;;;;;4998933;28;20136;-79
2023/12/15 08:43:02;;;;;;;20.92;5.35;;;;;;;;;;4986203;28;20042;-81
2023/12/15 08:45:29;;;;;;;17.40;5.70;;;;;;;;;;4988186;28;20536;-78
2023/12/15 08:47:57;;;;;;;25.65;6.18;;;;;;;;;;4992396;28;20034;-75
2023/12/15 08:50:24;;;;;;;29.30;6.68;;;;;;;;;;4985137;28;20375;-77
2023/12/15 08:52:50;;;;;;;21.10;6.75;;;;;;;;;;4985403;28;20073;-75
2023/12/15 08:55:19;;;;;;;21.27;6.38;;;;;;;;;;4990209;28;20110;-79
2023/12/15 08:57:47;;;;;;;18.20;5.93;;;;;;;;;;4987570;28;20038;-79
2023/12/15 09:00:16;;;;;;;14.82;5.05;;;;;;;;;;4989612;28;20033;-81
2023/12/15 09:02:45;;;;;;;16.38;4.97;;;;;;;;;;4992392;28;20030;-81
2023/12/15 09:05:13;;;;;;;14.80;5.35;;;;;;;;;;4989822;28;20025;-80
2023/12/15 09:07:42;;;;;;;18.90;5.38;;;;;;;;;;4994343;28;20061;-81
2023/12/15 09:10:10;;;;;;;14.25;3.75;;;;;;;;;;4986370;28;20037;-79
2023/12/15 09:12:39;;;;;;;9.75;3.50;;;;;;;;;;4970885;28;20042;-77
2023/12/15 09:15:10;;;;;;;10.60;3.10;;;;;;;;;;4985746;28;20045;-78
2023/12/15 09:17:42;;;;;;;9.10;2.35;;;;;;;;;;4991799;28;20042;-78
2023/12/15 09:20:08;;;;;;;11.40;3.05;;;;;;;;;;4994810;28;20064;-78
2023/12/15 09:22:37;;;;;;;9.57;2.67;;;;;;;;;;4990221;28;20026;-78
2023/12/15 09:25:04;;;;;;;11.10;2.55;;;;;;;;;;4990509;28;20045;-78
2023/12/15 09:27:31;;;;;;;8.63;1.80;;;;;;;;;;4981931;28;20120;-77
2023/12/15 09:29:59;;;;;;;6.18;1.45;;;;;;;;;;4989311;28;20028;-77
2023/12/15 09:32:28;;;;;;;6.78;1.70;;;;;;;;;;4986864;28;20048;-77
2023/12/15 09:34:55;;;;;;;6.50;1.70;;;;;;;;;;4990386;28;20049;-77
2023/12/15 09:37:24;;;;;;;7.25;2.13;;;;;;;;;;4986724;28;20036;-78
2023/12/15 09:39:52;;;;;;;5.63;1.65;;;;;;;;;;4989552;28;20485;-77
2023/12/15 09:42:19;;;;;;;16.08;11.45;;;;;;;;;;4985504;28;20041;-76
2023/12/15 09:44:47;;;;;;;11.48;4.68;;;;;;;;;;4987118;28;20548;-75
2023/12/15 09:47:16;;;;;;;9.32;3.03;;;;;;;;;;5005702;28;20041;-76
2023/12/15 09:49:44;;;;;;;7.00;1.58;;;;;;;;;;4986825;28;20733;-76
2023/12/15 09:52:13;;;;;;;7.93;1.83;;;;;;;;;;4973998;28;20034;-76
2023/12/15 09:54:41;;;;;;;7.80;1.55;;;;;;;;;;4994347;28;20112;-76
2023/12/15 09:57:11;;;;;;;6.68;1.77;;;;;;;;;;4997368;28;20053;-77
2023/12/15 09:59:42;;;;;;;7.05;1.58;;;;;;;;;;4988225;28;20034;-77
2023/12/15 10:02:08;;;;;;;5.63;1.35;;;;;;;;;;4973555;28;20046;-77
2023/12/15 10:04:35;;;;;;;6.45;1.35;;;;;;;;;;4991378;28;20072;-78
2023/12/15 10:07:03;;;;;;;6.15;1.10;;;;;;;;;;4988094;28;20620;-77
2023/12/15 10:09:30;;;;;;;6.95;1.35;;;;;;;;;;4984067;28;20029;-76
2023/12/15 10:11:58;;;;;;;14.40;2.20;;;;;;;;;;4989905;28;20025;-78
2023/12/15 10:14:27;;;;;;;13.77;2.00;;;;;;;;;;4985731;28;20498;-77
2023/12/15 10:16:54;;;;;;;6.57;1.50;;;;;;;;;;4993799;28;20037;-77
2023/12/15 10:19:27;;;;;;;7.60;2.08;;;;;;;;;;4985082;28;20085;-77
2023/12/15 10:21:58;;;;;;;8.20;1.85;;;;;;;;;;4988983;28;20033;-78
2023/12/15 10:24:27;;;;;;;7.53;1.85;;;;;;;;;;4989523;28;20041;-77
2023/12/15 10:26:55;;;;;;;7.93;2.35;;;;;;;;;;4983542;28;20703;-78
2023/12/15 10:29:25;;;;;;;7.43;2.08;;;;;;;;;;4987081;28;20040;-78
2023/12/15 10:31:55;;;;;;;5.97;1.90;;;;;;;;;;4987880;28;20033;-76
2023/12/15 10:34:30;;;;;;;6.15;1.77;;;;;;;;;;4990480;28;20050;-79
2023/12/15 10:36:57;;;;;;;7.82;1.60;;;;;;;;;;4987714;28;20040;-80
2023/12/15 10:39:25;;;;;;;7.78;2.20;;;;;;;;;;4993036;28;20061;-80
2023/12/15 10:41:53;;;;;;;7.22;1.98;;;;;;;;;;4990448;28;20586;-77
2023/12/15 10:44:22;;;;;;;6.68;2.17;;;;;;;;;;4989027;28;20191;-80
2023/12/15 10:46:48;;;;;;;11.55;2.40;;;;;;;;;;4991207;28;20263;-80
2023/12/15 10:49:16;;;;;;;7.78;1.98;;;;;;;;;;4974773;28;20030;-80
2023/12/15 10:51:46;;;;;;;7.45;2.28;;;;;;;;;;4994415;28;20113;-80
2023/12/15 10:54:16;;;;;;;8.23;2.58;;;;;;;;;;4990500;28;20041;-80
2023/12/15 10:56:54;;;;;;;6.25;1.23;;;;;;;;;;4996214;28;20047;-80
2023/12/15 10:59:20;;;;;;;5.63;1.60;;;;;;;;;;4991788;28;20603;-79
2023/12/15 11:01:49;;;;;;;7.82;1.80;;;;;;;;;;4996575;28;20044;-80
2023/12/15 11:04:41;;;;;;;7.57;2.13;;;;;;;;;;4994724;28;20034;-79
2023/12/15 11:07:31;;;;;;;6.97;2.00;;;;;;;;;;4995135;28;20626;-78
2023/12/15 11:09:59;;;;;;;6.95;1.60;;;;;;;;;;4991179;28;20579;-80
2023/12/15 11:12:30;;;;;;;6.05;1.30;;;;;;;;;;4993881;28;20034;-79
2023/12/15 11:15:22;;;;;;;4.70;1.40;;;;;;;;;;4990967;28;20532;-79
2023/12/15 11:18:09;;;;;;;6.03;1.50;;;;;;;;;;4989253;28;20041;-79
2023/12/15 11:20:38;;;;;;;6.97;1.88;;;;;;;;;;4987797;28;20085;-78
2023/12/15 11:23:09;;;;;;;7.85;1.70;;;;;;;;;;4990239;28;20053;-79
2023/12/15 11:25:40;;;;;;;6.15;1.48;;;;;;;;;;4993331;28;20029;-79
2023/12/15 11:28:15;;;;;;;12.35;2.25;;;;;;;;;;4988542;28;20131;-80
2023/12/15 11:30:48;;;;;;;7.00;1.65;;;;;;;;;;4991564;28;20042;-80
2023/12/15 11:33:32;;;;;;;6.75;2.05;;;;;;;;;;4994028;28;20038;-79
2023/12/15 11:36:08;;;;;;;5.75;1.95;;;;;;;;;;4995170;28;20040;-79
2023/12/15 11:38:36;;;;;;;5.13;1.63;;;;;;;;;;4976984;28;20042;-77
2023/12/15 11:41:03;;;;;;;4.80;1.40;;;;;;;;;;4970820;28;20148;-79
2023/12/15 11:43:31;;;;;;;5.68;1.60;;;;;;;;;;4982070;28;20038;-79
2023/12/15 11:45:59;;;;;;;6.18;1.55;;;;;;;;;;4987647;28;20080;-80
2023/12/15 11:48:26;;;;;;;13.52;2.15;;;;;;;;;;4985167;28;20070;-80
2023/12/15 11:50:54;;;;;;;5.68;1.52;;;;;;;;;;4990453;28;20038;-79
2023/12/15 11:53:26;;;;;;;8.73;2.08;;;;;;;;;;4989114;28;20038;-79
2023/12/15 11:55:57;;;;;;;9.15;2.50;;;;;;;;;;4988047;28;20038;-79
2023/12/15 11:58:25;;;;;;;7.55;2.00;;;;;;;;;;4990008;28;20044;-80
2023/12/15 12:00:55;;;;;;;7.15;1.83;;;;;;;;;;4985906;28;20043;-81
2023/12/15 12:03:32;;;;;;;7.80;2.08;;;;;;;;;;4985563;28;20030;-80
2023/12/15 12:05:59;;;;;;;8.13;2.58;;;;;;;;;;4991392;28;20030;-82
2023/12/15 12:08:27;;;;;;;7.07;2.72;;;;;;;;;;4988298;28;20806;-80
2023/12/15 12:10:58;;;;;;;7.75;2.92;;;;;;;;;;4989607;28;20101;-80
2023/12/15 12:13:39;;;;;;;9.30;2.35;;;;;;;;;;4988352;28;20026;-80
2023/12/15 12:16:05;;;;;;;10.85;2.63;;;;;;;;;;4992630;28;20100;-80
2023/12/15 12:18:33;;;;;;;8.65;3.10;;;;;;;;;;4988846;28;20048;-80
2023/12/15 12:21:02;;;;;;;8.85;2.63;;;;;;;;;;4984682;28;20033;-81
2023/12/15 12:23:32;;;;;;;10.50;2.83;;;;;;;;;;4985408;28;20034;-81
2023/12/15 12:26:10;;;;;;;6.82;2.42;;;;;;;;;;4986843;28;20192;-81
2023/12/15 12:28:50;;;;;;;13.85;2.40;;;;;;;;;;4989985;28;20033;-82
2023/12/15 12:31:19;;;;;;;9.80;3.22;;;;;;;;;;4988940;28;20118;-81
2023/12/15 12:33:53;;;;;;;6.40;2.15;;;;;;;;;;4974785;28;20026;-81
2023/12/15 12:36:21;;;;;;;9.75;2.50;;;;;;;;;;4994300;28;20032;-81
2023/12/15 12:38:51;;;;;;;9.68;4.43;;;;;;;;;;4985475;28;20085;-81
2023/12/15 12:41:19;;;;;;;12.85;3.03;;;;;;;;;;4987465;28;20048;-81
2023/12/15 12:43:47;;;;;;;10.80;2.67;;;;;;;;;;4998226;28;20038;-81
2023/12/15 12:46:16;;;;;;;6.47;1.95;;;;;;;;;;4997684;28;20100;-81
2023/12/15 12:48:46;;;;;;;7.00;1.90;;;;;;;;;;4992332;28;20030;-80
2023/12/15 12:51:12;;;;;;;12.50;2.63;;;;;;;;;;4986680;28;20453;-80
2023/12/15 12:53:41;;;;;;;7.18;2.55;;;;;;;;;;4992883;28;20026;-81
2023/12/15 12:56:10;;;;;;;12.02;3.15;;;;;;;;;;4986719;28;20081;-81
2023/12/15 12:58:39;;;;;;;7.32;2.40;;;;;;;;;;4990958;28;20030;-81
2023/12/15 13:01:07;;;;;;;7.90;2.90;;;;;;;;;;4991253;28;20056;-81
2023/12/15 13:03:38;;;;;;;8.23;2.78;;;;;;;;;;4985921;28;20107;-81
2023/12/15 13:06:16;;;;;;;7.40;2.30;;;;;;;;;;4984817;28;20052;-82
2023/12/15 13:08:53;;;;;;;8.43;2.53;;;;;;;;;;4987022;28;20038;-81
2023/12/15 13:11:21;;;;;;;6.70;1.40;;;;;;;;;;4987301;28;20034;-82
2023/12/15 13:14:01;;;;;;;8.50;2.47;;;;;;;;;;4990856;28;20852;-83
2023/12/15 13:16:31;;;;;;;5.60;1.90;;;;;;;;;;4986620;28;20050;-83
2023/12/15 13:18:57;;;;;;;8.13;2.70;;;;;;;;;;4992607;28;20076;-81
2023/12/15 13:21:26;;;;;;;10.65;2.30;;;;;;;;;;4985892;28;20049;-82
2023/12/15 13:23:55;;;;;;;5.47;1.58;;;;;;;;;;4991015;28;20088;-81
2023/12/15 13:26:22;;;;;;;6.25;1.85;;;;;;;;;;4987949;28;20033;-81
2023/12/15 13:28:51;;;;;;;5.97;1.60;;;;;;;;;;4991970;28;20076;-80
2023/12/15 13:31:23;;;;;;;7.60;2.10;;;;;;;;;;4993235;28;20033;-81
2023/12/15 13:33:54;;;;;;;5.25;1.80;;;;;;;;;;4990922;28;20128;-81
2023/12/15 13:36:22;;;;;;;7.35;3.20;;;;;;;;;;4990161;28;20128;-81
2023/12/15 13:38:51;;;;;;;5.68;1.73;;;;;;;;;;4991025;28;20104;-81
2023/12/15 13:41:20;;;;;;;6.95;1.95;;;;;;;;;;4993205;28;20129;-81
2023/12/15 13:43:48;;;;;;;5.30;1.40;;;;;;;;;;4988577;28;20606;-81
2023/12/15 13:46:19;;;;;;;7.15;1.92;;;;;;;;;;4984073;28;20039;-81
2023/12/15 13:48:49;;;;;;;7.00;1.65;;;;;;;;;;4993208;28;20023;-82
2023/12/15 13:51:17;;;;;;;5.13;1.40;;;;;;;;;;4988671;28;20022;-81
2023/12/15 13:53:45;;;;;;;4.28;1.15;;;;;;;;;;4990022;28;20026;-81
2023/12/15 13:56:12;;;;;;;6.30;1.55;;;;;;;;;;4973943;28;20046;-81
2023/12/15 13:58:39;;;;;;;9.55;2.13;;;;;;;;;;4992080;28;20034;-81
2023/12/15 14:01:08;;;;;;;11.27;2.35;;;;;;;;;;4988314;28;20029;-80
2023/12/15 14:03:36;;;;;;;7.22;1.52;;;;;;;;;;4989074;28;20030;-81
2023/12/15 14:06:04;;;;;;;10.93;1.85;;;;;;;;;;4988929;28;20092;-81
2023/12/15 14:08:31;;;;;;;6.90;1.45;;;;;;;;;;4988032;28;20026;-80
2023/12/15 14:10:59;;;;;;;12.15;1.70;;;;;;;;;;4986640;28;20049;-80
2023/12/15 14:13:25;;;;;;;7.07;2.03;;;;;;;;;;4990424;28;20537;-80
2023/12/15 14:15:54;;;;;;;8.73;1.88;;;;;;;;;;4993065;28;20563;-80
2023/12/15 14:18:25;;;;;;;8.82;2.00;;;;;;;;;;4986885;28;20037;-80
2023/12/15 14:20:52;;;;;;;11.00;4.35;;;;;;;;;;4991140;28;20776;-80
2023/12/15 14:23:20;;;;;;;10.88;4.93;;;;;;;;;;4986264;28;20029;-79
2023/12/15 14:25:47;;;;;;;15.10;3.42;;;;;;;;;;4995994;28;20034;-81
2023/12/15 14:28:13;;;;;;;16.52;7.93;;;;;;;;;;4989207;28;20066;-80
2023/12/15 14:30:42;;;;;;;12.55;6.30;;;;;;;;;;4993431;28;20133;-80
2023/12/15 14:33:12;;;;;;;9.50;4.47;;;;;;;;;;4989361;28;20068;-80
2023/12/15 14:35:38;;;;;;;17.33;9.15;;;;;;;;;;4987987;28;20034;-79
2023/12/15 14:38:05;;;;;;;9.90;3.00;;;;;;;;;;4992320;28;20535;-79
2023/12/15 14:40:33;;;;;;;9.32;2.80;;;;;;;;;;4993638;28;20060;-81
2023/12/15 14:43:00;;;;;;;11.50;2.47;;;;;;;;;;4986912;28;20022;-81